sensor_id;sensor_type;location;lat;lon;timestamp;P1;durP1;ratioP1;P2;durP2;ratioP2
21014;SDS011;19207;-23.482;-46.500;2022-07-18T00:00:11;11.05;;;5.65;;
21014;SDS011;19207;-23.482;-46.500;2022-07-18T00:02:59;9.65;;;4.93;;
21014;SDS011;19207;-23.482;-46.500;2022-07-18T00:05:46;8.65;;;5.00;;
21014;SDS011;19207;-23.482;-46.500;2022-07-18T00:08:32;12.15;;;6.25;;
21014;SDS011;19207;-23.482;-46.500;2022-07-18T00:11:20;17.65;;;7.18;;
21014;SDS011;19207;-23.482;-46.500;2022-07-18T00:14:08;7.43;;;3.75;;
21014;SDS011;19207;-23.482;-46.500;2022-07-18T00:16:55;8.85;;;4.30;;
21014;SDS011;19207;-23.482;-46.500;2022-07-18T00:19:43;10.15;;;3.90;;
21014;SDS011;19207;-23.482;-46.500;2022-07-18T00:22:34;11.40;;;4.72;;
21014;SDS011;19207;-23.482;-46.500;2022-07-18T00:25:20;8.02;;;4.68;;
21014;SDS011;19207;-23.482;-46.500;2022-07-18T00:28:07;9.50;;;4.50;;
21014;SDS011;19207;-23.482;-46.500;2022-07-18T00:30:56;8.75;;;2.90;;
21014;SDS011;19207;-23.482;-46.500;2022-07-18T00:33:43;7.37;;;2.80;;
21014;SDS011;19207;-23.482;-46.500;2022-07-18T00:36:33;3.87;;;2.03;;
21014;SDS011;19207;-23.482;-46.500;2022-07-18T00:39:20;3.97;;;2.42;;
21014;SDS011;19207;-23.482;-46.500;2022-07-18T00:42:07;3.03;;;1.85;;
21014;SDS011;19207;-23.482;-46.500;2022-07-18T00:44:54;7.35;;;2.00;;
21014;SDS011;19207;-23.482;-46.500;2022-07-18T00:47:41;4.45;;;2.35;;
21014;SDS011;19207;-23.482;-46.500;2022-07-18T00:50:28;5.60;;;3.03;;
21014;SDS011;19207;-23.482;-46.500;2022-07-18T00:53:15;4.80;;;2.67;;
21014;SDS011;19207;-23.482;-46.500;2022-07-18T00:56:04;4.25;;;2.70;;
21014;SDS011;19207;-23.482;-46.500;2022-07-18T00:58:50;4.12;;;2.50;;
21014;SDS011;19207;-23.482;-46.500;2022-07-18T01:01:37;4.45;;;2.83;;
21014;SDS011;19207;-23.482;-46.500;2022-07-18T01:04:35;5.35;;;2.78;;
21014;SDS011;19207;-23.482;-46.500;2022-07-18T01:07:23;10.32;;;3.30;;
21014;SDS011;19207;-23.482;-46.500;2022-07-18T01:10:12;2.80;;;1.70;;
21014;SDS011;19207;-23.482;-46.500;2022-07-18T01:13:00;1.77;;;1.20;;
21014;SDS011;19207;-23.482;-46.500;2022-07-18T01:15:46;1.98;;;1.10;;
21014;SDS011;19207;-23.482;-46.500;2022-07-18T01:18:33;3.33;;;1.87;;
21014;SDS011;19207;-23.482;-46.500;2022-07-18T01:21:20;2.97;;;1.60;;
21014;SDS011;19207;-23.482;-46.500;2022-07-18T01:24:07;3.53;;;1.75;;
21014;SDS011;19207;-23.482;-46.500;2022-07-18T01:26:54;3.60;;;1.98;;
21014;SDS011;19207;-23.482;-46.500;2022-07-18T01:29:41;2.75;;;1.83;;
21014;SDS011;19207;-23.482;-46.500;2022-07-18T01:32:28;3.03;;;1.70;;
21014;SDS011;19207;-23.482;-46.500;2022-07-18T01:35:15;3.65;;;1.15;;
21014;SDS011;19207;-23.482;-46.500;2022-07-18T01:38:02;3.30;;;1.75;;
21014;SDS011;19207;-23.482;-46.500;2022-07-18T01:40:51;2.55;;;1.60;;
21014;SDS011;19207;-23.482;-46.500;2022-07-18T01:43:41;1.80;;;1.30;;
21014;SDS011;19207;-23.482;-46.500;2022-07-18T01:46:29;3.47;;;1.77;;
21014;SDS011;19207;-23.482;-46.500;2022-07-18T01:49:18;6.68;;;1.30;;
21014;SDS011;19207;-23.482;-46.500;2022-07-18T01:52:05;2.17;;;1.33;;
21014;SDS011;19207;-23.482;-46.500;2022-07-18T01:54:53;3.25;;;1.40;;
21014;SDS011;19207;-23.482;-46.500;2022-07-18T01:57:39;5.57;;;1.62;;
21014;SDS011;19207;-23.482;-46.500;2022-07-18T02:00:26;3.05;;;1.33;;
21014;SDS011;19207;-23.482;-46.500;2022-07-18T02:03:12;2.55;;;1.40;;
21014;SDS011;19207;-23.482;-46.500;2022-07-18T02:06:00;6.75;;;1.50;;
21014;SDS011;19207;-23.482;-46.500;2022-07-18T02:08:47;9.68;;;1.60;;
21014;SDS011;19207;-23.482;-46.500;2022-07-18T02:11:33;3.80;;;1.37;;
21014;SDS011;19207;-23.482;-46.500;2022-07-18T02:14:25;4.03;;;1.33;;
21014;SDS011;19207;-23.482;-46.500;2022-07-18T02:17:11;2.85;;;1.40;;
21014;SDS011;19207;-23.482;-46.500;2022-07-18T02:19:59;2.53;;;1.70;;
21014;SDS011;19207;-23.482;-46.500;2022-07-18T02:22:48;4.85;;;2.20;;
21014;SDS011;19207;-23.482;-46.500;2022-07-18T02:25:35;7.70;;;3.95;;
21014;SDS011;19207;-23.482;-46.500;2022-07-18T02:28:22;7.95;;;3.03;;
21014;SDS011;19207;-23.482;-46.500;2022-07-18T02:31:09;5.47;;;2.35;;
21014;SDS011;19207;-23.482;-46.500;2022-07-18T02:33:55;8.18;;;2.80;;
21014;SDS011;19207;-23.482;-46.500;2022-07-18T02:36:42;9.45;;;2.58;;
21014;SDS011;19207;-23.482;-46.500;2022-07-18T02:39:29;3.58;;;2.20;;
21014;SDS011;19207;-23.482;-46.500;2022-07-18T02:42:16;5.28;;;2.97;;
21014;SDS011;19207;-23.482;-46.500;2022-07-18T02:45:04;4.43;;;1.77;;
21014;SDS011;19207;-23.482;-46.500;2022-07-18T02:47:51;6.55;;;2.28;;
21014;SDS011;19207;-23.482;-46.500;2022-07-18T02:50:38;3.17;;;1.40;;
21014;SDS011;19207;-23.482;-46.500;2022-07-18T02:53:47;5.80;;;2.00;;
21014;SDS011;19207;-23.482;-46.500;2022-07-18T02:56:33;2.22;;;1.30;;
21014;SDS011;19207;-23.482;-46.500;2022-07-18T02:59:20;3.08;;;1.60;;
21014;SDS011;19207;-23.482;-46.500;2022-07-18T03:02:09;3.22;;;1.33;;
21014;SDS011;19207;-23.482;-46.500;2022-07-18T03:04:55;2.42;;;1.45;;
21014;SDS011;19207;-23.482;-46.500;2022-07-18T03:07:42;5.15;;;2.33;;
21014;SDS011;19207;-23.482;-46.500;2022-07-18T03:10:29;6.47;;;3.25;;
21014;SDS011;19207;-23.482;-46.500;2022-07-18T03:13:16;7.35;;;3.20;;
21014;SDS011;19207;-23.482;-46.500;2022-07-18T03:16:04;10.75;;;2.67;;
21014;SDS011;19207;-23.482;-46.500;2022-07-18T03:18:50;6.93;;;2.47;;
21014;SDS011;19207;-23.482;-46.500;2022-07-18T03:21:37;7.85;;;2.95;;
21014;SDS011;19207;-23.482;-46.500;2022-07-18T03:24:26;11.98;;;3.60;;
21014;SDS011;19207;-23.482;-46.500;2022-07-18T03:27:14;13.93;;;4.30;;
21014;SDS011;19207;-23.482;-46.500;2022-07-18T03:30:01;14.87;;;4.60;;
21014;SDS011;19207;-23.482;-46.500;2022-07-18T03:32:47;10.10;;;4.22;;
21014;SDS011;19207;-23.482;-46.500;2022-07-18T03:35:34;13.70;;;4.53;;
21014;SDS011;19207;-23.482;-46.500;2022-07-18T03:38:21;11.68;;;4.55;;
21014;SDS011;19207;-23.482;-46.500;2022-07-18T03:41:08;12.00;;;4.72;;
21014;SDS011;19207;-23.482;-46.500;2022-07-18T03:43:57;15.13;;;4.93;;
21014;SDS011;19207;-23.482;-46.500;2022-07-18T03:46:44;12.20;;;3.95;;
21014;SDS011;19207;-23.482;-46.500;2022-07-18T03:49:31;18.90;;;4.57;;
21014;SDS011;19207;-23.482;-46.500;2022-07-18T03:52:18;14.45;;;3.65;;
21014;SDS011;19207;-23.482;-46.500;2022-07-18T03:55:05;11.50;;;3.75;;
21014;SDS011;19207;-23.482;-46.500;2022-07-18T03:57:52;19.50;;;7.28;;
21014;SDS011;19207;-23.482;-46.500;2022-07-18T04:00:38;13.98;;;5.20;;
21014;SDS011;19207;-23.482;-46.500;2022-07-18T04:03:25;16.40;;;4.78;;
21014;SDS011;19207;-23.482;-46.500;2022-07-18T04:06:11;11.82;;;3.50;;
21014;SDS011;19207;-23.482;-46.500;2022-07-18T04:08:58;15.27;;;4.22;;
21014;SDS011;19207;-23.482;-46.500;2022-07-18T04:11:45;18.62;;;7.70;;
21014;SDS011;19207;-23.482;-46.500;2022-07-18T04:14:31;12.55;;;6.75;;
21014;SDS011;19207;-23.482;-46.500;2022-07-18T04:17:18;3.97;;;2.37;;
21014;SDS011;19207;-23.482;-46.500;2022-07-18T04:20:04;14.55;;;10.55;;
21014;SDS011;19207;-23.482;-46.500;2022-07-18T04:22:53;2.45;;;1.40;;
21014;SDS011;19207;-23.482;-46.500;2022-07-18T04:25:41;1.83;;;1.00;;
21014;SDS011;19207;-23.482;-46.500;2022-07-18T04:28:27;7.12;;;4.32;;
21014;SDS011;19207;-23.482;-46.500;2022-07-18T04:31:15;5.78;;;3.03;;
21014;SDS011;19207;-23.482;-46.500;2022-07-18T04:34:03;1.95;;;1.10;;
21014;SDS011;19207;-23.482;-46.500;2022-07-18T04:36:50;3.90;;;0.85;;
21014;SDS011;19207;-23.482;-46.500;2022-07-18T04:39:37;2.20;;;1.10;;
21014;SDS011;19207;-23.482;-46.500;2022-07-18T04:42:23;1.37;;;1.00;;
21014;SDS011;19207;-23.482;-46.500;2022-07-18T04:45:10;1.52;;;1.00;;
21014;SDS011;19207;-23.482;-46.500;2022-07-18T04:47:58;1.00;;;0.80;;
21014;SDS011;19207;-23.482;-46.500;2022-07-18T04:50:45;4.20;;;1.00;;
21014;SDS011;19207;-23.482;-46.500;2022-07-18T04:53:31;3.90;;;1.45;;
21014;SDS011;19207;-23.482;-46.500;2022-07-18T04:56:18;2.67;;;1.00;;
21014;SDS011;19207;-23.482;-46.500;2022-07-18T04:59:04;2.70;;;0.98;;
21014;SDS011;19207;-23.482;-46.500;2022-07-18T05:01:52;2.10;;;1.00;;
21014;SDS011;19207;-23.482;-46.500;2022-07-18T05:04:39;1.45;;;0.90;;
21014;SDS011;19207;-23.482;-46.500;2022-07-18T05:07:25;3.55;;;0.70;;
21014;SDS011;19207;-23.482;-46.500;2022-07-18T05:10:13;0.62;;;0.57;;
21014;SDS011;19207;-23.482;-46.500;2022-07-18T05:13:00;1.58;;;0.70;;
21014;SDS011;19207;-23.482;-46.500;2022-07-18T05:15:46;8.90;;;1.05;;
21014;SDS011;19207;-23.482;-46.500;2022-07-18T05:18:33;3.70;;;0.80;;
21014;SDS011;19207;-23.482;-46.500;2022-07-18T05:21:20;2.53;;;0.80;;
21014;SDS011;19207;-23.482;-46.500;2022-07-18T05:24:06;3.10;;;1.20;;
21014;SDS011;19207;-23.482;-46.500;2022-07-18T05:26:53;3.17;;;0.98;;
21014;SDS011;19207;-23.482;-46.500;2022-07-18T05:29:40;6.65;;;1.12;;
21014;SDS011;19207;-23.482;-46.500;2022-07-18T05:32:27;3.35;;;1.30;;
21014;SDS011;19207;-23.482;-46.500;2022-07-18T05:35:14;3.78;;;1.25;;
21014;SDS011;19207;-23.482;-46.500;2022-07-18T05:38:01;3.28;;;1.30;;
21014;SDS011;19207;-23.482;-46.500;2022-07-18T05:40:47;2.62;;;1.48;;
21014;SDS011;19207;-23.482;-46.500;2022-07-18T05:43:34;6.18;;;1.67;;
21014;SDS011;19207;-23.482;-46.500;2022-07-18T05:46:21;3.12;;;1.30;;
21014;SDS011;19207;-23.482;-46.500;2022-07-18T05:49:08;10.80;;;2.30;;
21014;SDS011;19207;-23.482;-46.500;2022-07-18T05:51:55;10.63;;;3.00;;
21014;SDS011;19207;-23.482;-46.500;2022-07-18T05:54:41;6.72;;;2.15;;
21014;SDS011;19207;-23.482;-46.500;2022-07-18T05:57:28;7.93;;;2.53;;
21014;SDS011;19207;-23.482;-46.500;2022-07-18T06:00:14;17.33;;;3.50;;
21014;SDS011;19207;-23.482;-46.500;2022-07-18T06:03:01;12.23;;;3.40;;
21014;SDS011;19207;-23.482;-46.500;2022-07-18T06:05:47;14.65;;;3.40;;
21014;SDS011;19207;-23.482;-46.500;2022-07-18T06:08:34;14.43;;;3.47;;
21014;SDS011;19207;-23.482;-46.500;2022-07-18T06:11:21;14.75;;;3.85;;
21014;SDS011;19207;-23.482;-46.500;2022-07-18T06:14:09;10.80;;;4.20;;
21014;SDS011;19207;-23.482;-46.500;2022-07-18T06:16:55;15.00;;;4.93;;
21014;SDS011;19207;-23.482;-46.500;2022-07-18T06:19:42;15.82;;;4.93;;
21014;SDS011;19207;-23.482;-46.500;2022-07-18T06:22:29;13.32;;;4.20;;
21014;SDS011;19207;-23.482;-46.500;2022-07-18T06:25:16;14.20;;;4.37;;
21014;SDS011;19207;-23.482;-46.500;2022-07-18T06:28:03;17.20;;;5.22;;
21014;SDS011;19207;-23.482;-46.500;2022-07-18T06:30:50;14.65;;;4.15;;
21014;SDS011;19207;-23.482;-46.500;2022-07-18T06:33:37;16.92;;;6.87;;
21014;SDS011;19207;-23.482;-46.500;2022-07-18T06:36:23;14.57;;;6.72;;
21014;SDS011;19207;-23.482;-46.500;2022-07-18T06:39:09;11.25;;;5.87;;
21014;SDS011;19207;-23.482;-46.500;2022-07-18T06:41:57;13.13;;;5.75;;
21014;SDS011;19207;-23.482;-46.500;2022-07-18T06:44:44;10.50;;;5.82;;
21014;SDS011;19207;-23.482;-46.500;2022-07-18T06:47:31;14.18;;;5.05;;
21014;SDS011;19207;-23.482;-46.500;2022-07-18T06:50:18;8.40;;;4.72;;
21014;SDS011;19207;-23.482;-46.500;2022-07-18T06:53:05;10.10;;;4.78;;
21014;SDS011;19207;-23.482;-46.500;2022-07-18T06:55:51;6.50;;;3.78;;
21014;SDS011;19207;-23.482;-46.500;2022-07-18T06:58:38;5.45;;;3.20;;
21014;SDS011;19207;-23.482;-46.500;2022-07-18T07:01:25;7.70;;;4.07;;
21014;SDS011;19207;-23.482;-46.500;2022-07-18T07:04:11;5.47;;;3.10;;
21014;SDS011;19207;-23.482;-46.500;2022-07-18T07:06:58;5.47;;;3.28;;
21014;SDS011;19207;-23.482;-46.500;2022-07-18T07:09:45;7.93;;;3.50;;
21014;SDS011;19207;-23.482;-46.500;2022-07-18T07:12:41;7.32;;;4.20;;
21014;SDS011;19207;-23.482;-46.500;2022-07-18T07:15:28;9.48;;;5.32;;
21014;SDS011;19207;-23.482;-46.500;2022-07-18T07:18:15;14.23;;;5.72;;
21014;SDS011;19207;-23.482;-46.500;2022-07-18T07:21:01;13.20;;;6.07;;
21014;SDS011;19207;-23.482;-46.500;2022-07-18T07:23:48;10.60;;;6.10;;
21014;SDS011;19207;-23.482;-46.500;2022-07-18T07:26:34;12.10;;;6.18;;
21014;SDS011;19207;-23.482;-46.500;2022-07-18T07:29:22;8.65;;;4.55;;
21014;SDS011;19207;-23.482;-46.500;2022-07-18T07:32:08;9.80;;;4.15;;
21014;SDS011;19207;-23.482;-46.500;2022-07-18T07:34:55;10.98;;;4.07;;
21014;SDS011;19207;-23.482;-46.500;2022-07-18T07:37:42;8.65;;;3.87;;
21014;SDS011;19207;-23.482;-46.500;2022-07-18T07:40:29;6.60;;;3.67;;
21014;SDS011;19207;-23.482;-46.500;2022-07-18T07:43:16;8.10;;;4.07;;
21014;SDS011;19207;-23.482;-46.500;2022-07-18T07:46:03;14.23;;;5.47;;
21014;SDS011;19207;-23.482;-46.500;2022-07-18T07:48:50;11.70;;;5.12;;
21014;SDS011;19207;-23.482;-46.500;2022-07-18T07:51:37;10.30;;;4.07;;
21014;SDS011;19207;-23.482;-46.500;2022-07-18T07:54:24;12.85;;;3.25;;
21014;SDS011;19207;-23.482;-46.500;2022-07-18T07:57:10;6.70;;;3.03;;
21014;SDS011;19207;-23.482;-46.500;2022-07-18T07:59:57;5.53;;;2.95;;
21014;SDS011;19207;-23.482;-46.500;2022-07-18T08:03:17;6.85;;;2.97;;
21014;SDS011;19207;-23.482;-46.500;2022-07-18T08:05:56;6.55;;;3.08;;
21014;SDS011;19207;-23.482;-46.500;2022-07-18T08:08:43;7.32;;;3.20;;
21014;SDS011;19207;-23.482;-46.500;2022-07-18T08:11:30;4.75;;;2.65;;
21014;SDS011;19207;-23.482;-46.500;2022-07-18T08:14:17;11.18;;;3.05;;
21014;SDS011;19207;-23.482;-46.500;2022-07-18T08:17:03;5.85;;;2.10;;
21014;SDS011;19207;-23.482;-46.500;2022-07-18T08:19:50;5.82;;;2.47;;
21014;SDS011;19207;-23.482;-46.500;2022-07-18T08:25:42;7.45;;;3.22;;
21014;SDS011;19207;-23.482;-46.500;2022-07-18T08:28:29;13.20;;;3.40;;
21014;SDS011;19207;-23.482;-46.500;2022-07-18T08:31:16;9.35;;;3.25;;
21014;SDS011;19207;-23.482;-46.500;2022-07-18T08:34:04;10.60;;;3.10;;
21014;SDS011;19207;-23.482;-46.500;2022-07-18T08:36:50;7.32;;;2.80;;
21014;SDS011;19207;-23.482;-46.500;2022-07-18T08:42:51;4.62;;;2.40;;
21014;SDS011;19207;-23.482;-46.500;2022-07-18T08:45:40;5.80;;;1.90;;
21014;SDS011;19207;-23.482;-46.500;2022-07-18T08:48:28;6.75;;;2.08;;
21014;SDS011;19207;-23.482;-46.500;2022-07-18T08:51:15;5.30;;;2.22;;
21014;SDS011;19207;-23.482;-46.500;2022-07-18T08:54:02;6.78;;;2.25;;
21014;SDS011;19207;-23.482;-46.500;2022-07-18T08:56:49;7.03;;;3.08;;
21014;SDS011;19207;-23.482;-46.500;2022-07-18T08:59:36;6.85;;;2.70;;
21014;SDS011;19207;-23.482;-46.500;2022-07-18T09:02:26;4.47;;;2.70;;
21014;SDS011;19207;-23.482;-46.500;2022-07-18T09:05:17;7.55;;;2.97;;
21014;SDS011;19207;-23.482;-46.500;2022-07-18T09:08:12;6.95;;;2.90;;
21014;SDS011;19207;-23.482;-46.500;2022-07-18T09:11:02;6.35;;;2.40;;
21014;SDS011;19207;-23.482;-46.500;2022-07-18T09:13:49;6.75;;;2.55;;
21014;SDS011;19207;-23.482;-46.500;2022-07-18T09:16:36;8.20;;;2.78;;
21014;SDS011;19207;-23.482;-46.500;2022-07-18T09:19:23;8.48;;;3.15;;
21014;SDS011;19207;-23.482;-46.500;2022-07-18T09:22:20;6.37;;;2.87;;
21014;SDS011;19207;-23.482;-46.500;2022-07-18T09:25:08;5.12;;;2.60;;
21014;SDS011;19207;-23.482;-46.500;2022-07-18T09:27:59;4.00;;;2.17;;
21014;SDS011;19207;-23.482;-46.500;2022-07-18T09:30:46;3.47;;;1.90;;
21014;SDS011;19207;-23.482;-46.500;2022-07-18T09:33:33;3.97;;;2.00;;
21014;SDS011;19207;-23.482;-46.500;2022-07-18T09:36:20;7.07;;;2.35;;
21014;SDS011;19207;-23.482;-46.500;2022-07-18T09:39:17;3.55;;;2.58;;
21014;SDS011;19207;-23.482;-46.500;2022-07-18T09:42:14;4.15;;;2.95;;
21014;SDS011;19207;-23.482;-46.500;2022-07-18T09:45:01;7.00;;;2.60;;
21014;SDS011;19207;-23.482;-46.500;2022-07-18T09:47:49;6.35;;;3.20;;
21014;SDS011;19207;-23.482;-46.500;2022-07-18T09:53:24;11.02;;;4.05;;
21014;SDS011;19207;-23.482;-46.500;2022-07-18T09:56:13;12.00;;;4.20;;
21014;SDS011;19207;-23.482;-46.500;2022-07-18T09:58:59;11.35;;;5.22;;
21014;SDS011;19207;-23.482;-46.500;2022-07-18T10:01:46;11.15;;;4.65;;
21014;SDS011;19207;-23.482;-46.500;2022-07-18T10:04:34;10.13;;;4.55;;
21014;SDS011;19207;-23.482;-46.500;2022-07-18T10:07:21;11.15;;;5.45;;
21014;SDS011;19207;-23.482;-46.500;2022-07-18T10:10:08;14.20;;;6.75;;
21014;SDS011;19207;-23.482;-46.500;2022-07-18T10:12:56;17.25;;;8.10;;
21014;SDS011;19207;-23.482;-46.500;2022-07-18T10:15:43;18.85;;;9.90;;
21014;SDS011;19207;-23.482;-46.500;2022-07-18T10:18:31;18.33;;;8.77;;
21014;SDS011;19207;-23.482;-46.500;2022-07-18T10:21:19;16.58;;;8.18;;
21014;SDS011;19207;-23.482;-46.500;2022-07-18T10:24:07;15.00;;;7.40;;
21014;SDS011;19207;-23.482;-46.500;2022-07-18T10:27:17;15.77;;;7.22;;
21014;SDS011;19207;-23.482;-46.500;2022-07-18T10:30:08;16.12;;;7.45;;
21014;SDS011;19207;-23.482;-46.500;2022-07-18T10:32:55;14.10;;;6.20;;
21014;SDS011;19207;-23.482;-46.500;2022-07-18T10:36:04;17.45;;;6.90;;
21014;SDS011;19207;-23.482;-46.500;2022-07-18T10:39:07;17.70;;;6.82;;
21014;SDS011;19207;-23.482;-46.500;2022-07-18T10:44:42;17.23;;;6.68;;
21014;SDS011;19207;-23.482;-46.500;2022-07-18T10:47:29;14.98;;;7.30;;
21014;SDS011;19207;-23.482;-46.500;2022-07-18T10:50:16;20.40;;;7.00;;
21014;SDS011;19207;-23.482;-46.500;2022-07-18T10:53:02;20.92;;;7.43;;
21014;SDS011;19207;-23.482;-46.500;2022-07-18T10:55:49;20.52;;;7.45;;
21014;SDS011;19207;-23.482;-46.500;2022-07-18T10:58:38;18.23;;;6.82;;
21014;SDS011;19207;-23.482;-46.500;2022-07-18T11:01:25;20.20;;;6.80;;
21014;SDS011;19207;-23.482;-46.500;2022-07-18T11:07:13;18.73;;;7.20;;
21014;SDS011;19207;-23.482;-46.500;2022-07-18T11:09:59;21.75;;;8.23;;
21014;SDS011;19207;-23.482;-46.500;2022-07-18T11:12:45;16.23;;;7.68;;
21014;SDS011;19207;-23.482;-46.500;2022-07-18T11:15:53;22.37;;;9.07;;
21014;SDS011;19207;-23.482;-46.500;2022-07-18T11:21:40;22.98;;;8.93;;
21014;SDS011;19207;-23.482;-46.500;2022-07-18T11:24:26;22.30;;;8.70;;
21014;SDS011;19207;-23.482;-46.500;2022-07-18T11:27:13;16.73;;;8.43;;
21014;SDS011;19207;-23.482;-46.500;2022-07-18T11:30:00;21.42;;;8.02;;
21014;SDS011;19207;-23.482;-46.500;2022-07-18T11:32:47;16.00;;;7.20;;
21014;SDS011;19207;-23.482;-46.500;2022-07-18T11:35:34;22.13;;;8.27;;
21014;SDS011;19207;-23.482;-46.500;2022-07-18T11:38:20;15.73;;;7.47;;
21014;SDS011;19207;-23.482;-46.500;2022-07-18T11:41:07;15.10;;;6.82;;
21014;SDS011;19207;-23.482;-46.500;2022-07-18T11:43:54;18.55;;;7.85;;
21014;SDS011;19207;-23.482;-46.500;2022-07-18T11:46:41;23.15;;;7.62;;
21014;SDS011;19207;-23.482;-46.500;2022-07-18T11:49:28;29.48;;;11.38;;
21014;SDS011;19207;-23.482;-46.500;2022-07-18T11:52:15;30.40;;;10.70;;
21014;SDS011;19207;-23.482;-46.500;2022-07-18T11:55:04;23.45;;;10.32;;
21014;SDS011;19207;-23.482;-46.500;2022-07-18T11:57:51;16.15;;;7.45;;
21014;SDS011;19207;-23.482;-46.500;2022-07-18T12:00:39;16.30;;;6.72;;
21014;SDS011;19207;-23.482;-46.500;2022-07-18T12:03:25;17.10;;;6.90;;
21014;SDS011;19207;-23.482;-46.500;2022-07-18T12:06:22;24.65;;;9.20;;
21014;SDS011;19207;-23.482;-46.500;2022-07-18T12:09:08;24.55;;;10.52;;
21014;SDS011;19207;-23.482;-46.500;2022-07-18T12:11:55;26.05;;;11.68;;
21014;SDS011;19207;-23.482;-46.500;2022-07-18T12:14:41;27.20;;;10.40;;
21014;SDS011;19207;-23.482;-46.500;2022-07-18T12:17:28;22.80;;;8.95;;
21014;SDS011;19207;-23.482;-46.500;2022-07-18T12:20:16;15.23;;;7.85;;
21014;SDS011;19207;-23.482;-46.500;2022-07-18T12:25:52;13.55;;;6.72;;
21014;SDS011;19207;-23.482;-46.500;2022-07-18T12:28:39;16.20;;;7.43;;
21014;SDS011;19207;-23.482;-46.500;2022-07-18T12:31:45;25.48;;;10.45;;
21014;SDS011;19207;-23.482;-46.500;2022-07-18T12:34:31;23.40;;;8.93;;
21014;SDS011;19207;-23.482;-46.500;2022-07-18T12:37:22;17.50;;;8.82;;
21014;SDS011;19207;-23.482;-46.500;2022-07-18T12:40:10;20.98;;;8.23;;
21014;SDS011;19207;-23.482;-46.500;2022-07-18T12:43:04;22.25;;;7.57;;
21014;SDS011;19207;-23.482;-46.500;2022-07-18T12:45:51;20.62;;;7.95;;
21014;SDS011;19207;-23.482;-46.500;2022-07-18T12:48:38;20.12;;;8.00;;
21014;SDS011;19207;-23.482;-46.500;2022-07-18T12:51:29;24.52;;;9.77;;
21014;SDS011;19207;-23.482;-46.500;2022-07-18T12:54:16;26.17;;;8.73;;
21014;SDS011;19207;-23.482;-46.500;2022-07-18T12:57:03;18.90;;;9.23;;
21014;SDS011;19207;-23.482;-46.500;2022-07-18T12:59:50;20.70;;;9.30;;
21014;SDS011;19207;-23.482;-46.500;2022-07-18T13:02:37;29.27;;;11.55;;
21014;SDS011;19207;-23.482;-46.500;2022-07-18T13:05:24;30.40;;;12.20;;
21014;SDS011;19207;-23.482;-46.500;2022-07-18T13:08:10;23.23;;;11.73;;
21014;SDS011;19207;-23.482;-46.500;2022-07-18T13:11:00;32.10;;;12.00;;
21014;SDS011;19207;-23.482;-46.500;2022-07-18T13:13:47;27.33;;;12.20;;
21014;SDS011;19207;-23.482;-46.500;2022-07-18T13:16:33;23.80;;;10.77;;
21014;SDS011;19207;-23.482;-46.500;2022-07-18T13:19:20;26.25;;;9.70;;
21014;SDS011;19207;-23.482;-46.500;2022-07-18T13:22:06;19.77;;;9.48;;
21014;SDS011;19207;-23.482;-46.500;2022-07-18T13:24:54;23.67;;;9.40;;
21014;SDS011;19207;-23.482;-46.500;2022-07-18T13:27:43;28.95;;;10.25;;
21014;SDS011;19207;-23.482;-46.500;2022-07-18T13:30:30;27.27;;;9.98;;
21014;SDS011;19207;-23.482;-46.500;2022-07-18T13:33:17;22.45;;;8.73;;
21014;SDS011;19207;-23.482;-46.500;2022-07-18T13:36:03;20.27;;;8.75;;
21014;SDS011;19207;-23.482;-46.500;2022-07-18T13:38:50;18.92;;;8.95;;
21014;SDS011;19207;-23.482;-46.500;2022-07-18T13:41:37;19.70;;;8.82;;
21014;SDS011;19207;-23.482;-46.500;2022-07-18T13:44:23;21.73;;;8.38;;
21014;SDS011;19207;-23.482;-46.500;2022-07-18T13:47:10;17.55;;;9.20;;
21014;SDS011;19207;-23.482;-46.500;2022-07-18T13:49:57;28.92;;;12.75;;
21014;SDS011;19207;-23.482;-46.500;2022-07-18T13:52:43;25.42;;;9.32;;
21014;SDS011;19207;-23.482;-46.500;2022-07-18T13:55:30;25.20;;;9.00;;
21014;SDS011;19207;-23.482;-46.500;2022-07-18T13:58:17;21.10;;;10.00;;
21014;SDS011;19207;-23.482;-46.500;2022-07-18T14:01:03;21.75;;;9.15;;
21014;SDS011;19207;-23.482;-46.500;2022-07-18T14:03:50;21.27;;;9.07;;
21014;SDS011;19207;-23.482;-46.500;2022-07-18T14:06:37;22.50;;;9.50;;
21014;SDS011;19207;-23.482;-46.500;2022-07-18T14:09:23;22.40;;;9.48;;
21014;SDS011;19207;-23.482;-46.500;2022-07-18T14:12:10;21.15;;;9.05;;
21014;SDS011;19207;-23.482;-46.500;2022-07-18T14:14:57;21.95;;;9.30;;
21014;SDS011;19207;-23.482;-46.500;2022-07-18T14:17:44;27.35;;;9.32;;
21014;SDS011;19207;-23.482;-46.500;2022-07-18T14:20:30;22.10;;;8.93;;
21014;SDS011;19207;-23.482;-46.500;2022-07-18T14:23:17;18.75;;;8.13;;
21014;SDS011;19207;-23.482;-46.500;2022-07-18T14:26:04;15.85;;;8.20;;
21014;SDS011;19207;-23.482;-46.500;2022-07-18T14:28:51;25.17;;;8.65;;
21014;SDS011;19207;-23.482;-46.500;2022-07-18T14:31:38;19.95;;;9.25;;
21014;SDS011;19207;-23.482;-46.500;2022-07-18T14:34:24;30.90;;;10.98;;
21014;SDS011;19207;-23.482;-46.500;2022-07-18T14:37:11;25.55;;;10.73;;
21014;SDS011;19207;-23.482;-46.500;2022-07-18T14:39:58;30.17;;;11.82;;
21014;SDS011;19207;-23.482;-46.500;2022-07-18T14:42:44;25.08;;;10.70;;
21014;SDS011;19207;-23.482;-46.500;2022-07-18T14:45:31;29.23;;;10.73;;
21014;SDS011;19207;-23.482;-46.500;2022-07-18T14:48:18;23.35;;;9.90;;
21014;SDS011;19207;-23.482;-46.500;2022-07-18T14:51:04;24.90;;;10.02;;
21014;SDS011;19207;-23.482;-46.500;2022-07-18T14:53:51;22.05;;;10.55;;
21014;SDS011;19207;-23.482;-46.500;2022-07-18T14:56:38;26.62;;;9.73;;
21014;SDS011;19207;-23.482;-46.500;2022-07-18T14:59:25;26.77;;;10.23;;
21014;SDS011;19207;-23.482;-46.500;2022-07-18T15:02:11;34.95;;;10.75;;
21014;SDS011;19207;-23.482;-46.500;2022-07-18T15:04:59;24.25;;;10.38;;
21014;SDS011;19207;-23.482;-46.500;2022-07-18T15:07:46;32.17;;;10.55;;
21014;SDS011;19207;-23.482;-46.500;2022-07-18T15:10:32;22.65;;;10.70;;
21014;SDS011;19207;-23.482;-46.500;2022-07-18T15:13:19;20.20;;;9.68;;
21014;SDS011;19207;-23.482;-46.500;2022-07-18T15:16:06;21.08;;;10.32;;
21014;SDS011;19207;-23.482;-46.500;2022-07-18T15:18:52;23.67;;;10.70;;
21014;SDS011;19207;-23.482;-46.500;2022-07-18T15:21:39;25.65;;;10.88;;
21014;SDS011;19207;-23.482;-46.500;2022-07-18T15:24:26;21.50;;;10.50;;
21014;SDS011;19207;-23.482;-46.500;2022-07-18T15:27:13;23.87;;;11.30;;
21014;SDS011;19207;-23.482;-46.500;2022-07-18T15:30:00;24.27;;;11.12;;
21014;SDS011;19207;-23.482;-46.500;2022-07-18T15:32:47;26.50;;;10.70;;
21014;SDS011;19207;-23.482;-46.500;2022-07-18T15:35:34;28.20;;;10.68;;
21014;SDS011;19207;-23.482;-46.500;2022-07-18T15:38:21;25.45;;;11.68;;
21014;SDS011;19207;-23.482;-46.500;2022-07-18T15:41:08;26.33;;;12.13;;
21014;SDS011;19207;-23.482;-46.500;2022-07-18T15:43:55;24.15;;;11.65;;
21014;SDS011;19207;-23.482;-46.500;2022-07-18T15:46:41;20.42;;;9.55;;
21014;SDS011;19207;-23.482;-46.500;2022-07-18T15:49:28;20.98;;;10.88;;
21014;SDS011;19207;-23.482;-46.500;2022-07-18T15:52:15;21.48;;;9.95;;
21014;SDS011;19207;-23.482;-46.500;2022-07-18T15:55:01;19.25;;;10.45;;
21014;SDS011;19207;-23.482;-46.500;2022-07-18T15:57:48;23.35;;;11.18;;
21014;SDS011;19207;-23.482;-46.500;2022-07-18T16:00:35;23.15;;;10.90;;
21014;SDS011;19207;-23.482;-46.500;2022-07-18T16:03:21;22.25;;;10.20;;
21014;SDS011;19207;-23.482;-46.500;2022-07-18T16:06:08;25.70;;;10.93;;
21014;SDS011;19207;-23.482;-46.500;2022-07-18T16:08:54;26.08;;;12.32;;
21014;SDS011;19207;-23.482;-46.500;2022-07-18T16:11:41;27.98;;;12.02;;
21014;SDS011;19207;-23.482;-46.500;2022-07-18T16:14:30;23.95;;;10.38;;
21014;SDS011;19207;-23.482;-46.500;2022-07-18T16:17:17;23.58;;;9.75;;